地図

経路データ

SID SEASON NUMBER BASIN SUBBASIN NAME ISO_TIME NATURE LAT LON WMO_WIND WMO_PRES WMO_AGENCY TRACK_TYPE DIST2LAND LANDFALL IFLAG USA_AGENCY USA_ATCF_ID USA_LAT USA_LON USA_RECORD USA_STATUS USA_WIND USA_PRES USA_SSHS USA_R34_NE USA_R34_SE USA_R34_SW USA_R34_NW USA_R50_NE USA_R50_SE USA_R50_SW USA_R50_NW USA_R64_NE USA_R64_SE USA_R64_SW USA_R64_NW USA_POCI USA_ROCI USA_RMW USA_EYE TOKYO_LAT TOKYO_LON TOKYO_GRADE TOKYO_WIND TOKYO_PRES TOKYO_R50_DIR TOKYO_R50_LONG TOKYO_R50_SHORT TOKYO_R30_DIR TOKYO_R30_LONG TOKYO_R30_SHORT TOKYO_LAND CMA_LAT CMA_LON CMA_CAT CMA_WIND CMA_PRES HKO_LAT HKO_LON HKO_CAT HKO_WIND HKO_PRES NEWDELHI_LAT NEWDELHI_LON NEWDELHI_GRADE NEWDELHI_WIND NEWDELHI_PRES NEWDELHI_CI NEWDELHI_DP NEWDELHI_POCI REUNION_LAT REUNION_LON REUNION_TYPE REUNION_WIND REUNION_PRES REUNION_TNUM REUNION_CI REUNION_RMW REUNION_R34_NE REUNION_R34_SE REUNION_R34_SW REUNION_R34_NW REUNION_R50_NE REUNION_R50_SE REUNION_R50_SW REUNION_R50_NW REUNION_R64_NE REUNION_R64_SE REUNION_R64_SW REUNION_R64_NW BOM_LAT BOM_LON BOM_TYPE BOM_WIND BOM_PRES BOM_TNUM BOM_CI BOM_RMW BOM_R34_NE BOM_R34_SE BOM_R34_SW BOM_R34_NW BOM_R50_NE BOM_R50_SE BOM_R50_SW BOM_R50_NW BOM_R64_NE BOM_R64_SE BOM_R64_SW BOM_R64_NW BOM_ROCI BOM_POCI BOM_EYE BOM_POS_METHOD BOM_PRES_METHOD NADI_LAT NADI_LON NADI_CAT NADI_WIND NADI_PRES WELLINGTON_LAT WELLINGTON_LON WELLINGTON_WIND WELLINGTON_PRES DS824_LAT DS824_LON DS824_STAGE DS824_WIND DS824_PRES TD9636_LAT TD9636_LON TD9636_STAGE TD9636_WIND TD9636_PRES TD9635_LAT TD9635_LON TD9635_WIND TD9635_PRES TD9635_ROCI NEUMANN_LAT NEUMANN_LON NEUMANN_CLASS NEUMANN_WIND NEUMANN_PRES MLC_LAT MLC_LON MLC_CLASS MLC_WIND MLC_PRES USA_GUST BOM_GUST BOM_GUST_PER REUNION_GUST REUNION_GUST_PER USA_SEAHGT USA_SEARAD_NE USA_SEARAD_SE USA_SEARAD_SW USA_SEARAD_NW STORM_SPEED STORM_DIR
1966305N09096 1966 103 NI BB NOT_NAMED 1966-10-31 18:00:00 TS 8.80000 95.5000 main 307 307 O________O____ jtwc_io IO131966 8.80000 95.5000 -1 8.80000 95.5000 TC 3 271
1966305N09096 1966 103 NI BB NOT_NAMED 1966-10-31 21:00:00 TS 8.80239 95.3350 main 329 329 P________P____ IO131966 8.80239 95.3350 -1 8.80239 95.3350 TC 5 270
1966305N09096 1966 103 NI BB NOT_NAMED 1966-11-01 00:00:00 TS 8.80000 95.0000 main 359 359 O________O____ jtwc_io IO131966 8.80000 95.0000 -1 8.80000 95.0000 TC 25 9 269
1966305N09096 1966 103 NI BB NOT_NAMED 1966-11-01 03:00:00 TS 8.79339 94.3844 main 369 369 P________PO___ IO131966 8.79257 94.3824 -1 8.79257 94.3824 TC 25 8.80000 94.4000 1 14 270
1966305N09096 1966 103 NI BB NOT_NAMED 1966-11-01 06:00:00 TS 8.80998 93.5976 main 399 399 O________OP___ jtwc_io IO131966 8.80000 93.6000 -1 8.80000 93.6000 TC 25 8.84992 93.5879 1 16 272
1966305N09096 1966 103 NI BB NOT_NAMED 1966-11-01 09:00:00 TS 8.85244 92.8055 main 454 454 P________PP___ IO131966 8.83492 92.8150 -1 8.83492 92.8150 TC 25 8.89915 92.7804 1 16 274
1966305N09096 1966 103 NI BB NOT_NAMED 1966-11-01 12:00:00 TS 8.91627 91.9943 main 511 511 O________OP___ jtwc_io IO131966 8.90000 92.0000 -1 8.90000 92.0000 TC 25 8.94880 91.9828 1 16 275
1966305N09096 1966 103 NI BB NOT_NAMED 1966-11-01 15:00:00 TS 8.99492 91.1950 main 583 583 P________PO___ IO131966 8.99238 91.1925 -1 8.99238 91.1925 TC 25 9.00000 91.2000 1 16 276
1966305N09096 1966 103 NI BB NOT_NAMED 1966-11-01 18:00:00 TS 9.08546 90.4112 main 659 659 O________OP___ jtwc_io IO131966 9.10000 90.4000 -1 9.10000 90.4000 TC 25 9.05639 90.4335 1 15 277
1966305N09096 1966 103 NI BB NOT_NAMED 1966-11-01 21:00:00 TS 9.17196 89.6571 main 728 728 P________PP___ IO131966 9.19225 89.6499 -1 9.19225 89.6499 TC 30 9.13136 89.6715 1 15 277
1966305N09096 1966 103 NI BB NOT_NAMED 1966-11-02 00:00:00 TS 9.28023 88.8996 main 804 732 O________OP___ jtwc_io IO131966 9.30000 88.9000 -1 9.30000 88.9000 TC 35 9.24069 88.8989 1 15 279
1966305N09096 1966 103 NI BB NOT_NAMED 1966-11-02 03:00:00 TS 9.41318 88.1148 main 722 645 P________PO___ IO131966 9.41977 88.1223 -1 9.41977 88.1223 TC 35 9.40000 88.1000 2 16 281
1966305N09096 1966 103 NI BB NOT_NAMED 1966-11-02 06:00:00 TS 9.59726 87.2871 main 645 572 O________OP___ jtwc_io IO131966 9.60000 87.3000 -1 9.60000 87.3000 TC 35 9.59177 87.2612 2 17 285
1966305N09096 1966 103 NI BB NOT_NAMED 1966-11-02 09:00:00 TS 9.85888 86.4079 main 567 498 P________PP___ IO131966 9.86988 86.4149 -1 9.86988 86.4149 TC 35 9.83688 86.3938 2 19 288
1966305N09096 1966 103 NI BB NOT_NAMED 1966-11-02 12:00:00 TS 10.1795 85.5015 main 493 431 O________OP___ jtwc_io IO131966 10.2000 85.5000 -1 10.2000 85.5000 TC 35 10.1385 85.5045 2 19 290
1966305N09096 1966 103 NI BB NOT_NAMED 1966-11-02 15:00:00 TS 10.5031 84.6096 main 422 364 P________PO___ IO131966 10.5046 84.6144 -1 10.5046 84.6144 TC 35 10.5000 84.6000 3 20 293
1966305N09096 1966 103 NI BB NOT_NAMED 1966-11-02 18:00:00 TS 10.9345 83.6703 main 364 294 O________OP___ jtwc_io IO131966 10.9000 83.7000 -1 10.9000 83.7000 TC 35 11.0036 83.6110 3 22 298
1966305N09096 1966 103 NI BB NOT_NAMED 1966-11-02 21:00:00 TS 11.5314 82.6536 main 294 169 P________PP___ IO131966 11.5227 82.6709 -1 11.5227 82.6709 TC 50 11.5489 82.6191 3 23 301
1966305N09096 1966 103 NI BB NOT_NAMED 1966-11-03 00:00:00 TS 12.0815 81.6974 main 169 76 O________OP___ jtwc_io IO131966 12.1000 81.7000 -1 12.1000 81.7000 TC 65 12.0445 81.6921 3 19 297
1966305N09096 1966 103 NI BB NOT_NAMED 1966-11-03 03:00:00 TS 12.3981 80.9064 main 76 10 P________PO___ IO131966 12.3972 80.9096 -1 12.3972 80.9096 TC 50 12.4000 80.9000 4 14 287
1966305N09096 1966 103 NI BB NOT_NAMED 1966-11-03 06:00:00 TS 12.5078 80.3058 main 10 0 O________OP___ jtwc_io IO131966 12.5000 80.3000 -1 12.5000 80.3000 TC 35 12.5235 80.3174 4 10 276
1966305N09096 1966 103 NI BB NOT_NAMED 1966-11-03 09:00:00 TS 12.5066 79.8518 main 0 0 P________PP___ IO131966 12.5097 79.8399 -1 12.5097 79.8399 TC 30 12.5003 79.8757 4 8 262
1966305N09096 1966 103 NI BB NOT_NAMED 1966-11-03 12:00:00 TS 12.3924 79.5071 main 0 0 O________OP___ jtwc_io IO131966 12.4000 79.5000 -1 12.4000 79.5000 TC 25 12.3772 79.5213 4 7 246
1966305N09096 1966 103 NI BB NOT_NAMED 1966-11-03 15:00:00 TS 12.2149 79.1950 main 0 0 P________PO___ IO131966 12.2224 79.1925 -1 12.2224 79.1925 TC 25 12.2000 79.2000 1 7 238
1966305N09096 1966 103 NI BB NOT_NAMED 1966-11-03 18:00:00 TS 12.0088 78.8815 main 0 0 O________OP___ jtwc_io IO131966 12.0000 78.9000 -1 12.0000 78.9000 TC 25 12.0264 78.8445 1 8 237
1966305N09096 1966 103 NI BB NOT_NAMED 1966-11-03 21:00:00 TS 11.7998 78.5458 main 0 0 P________PP___ IO131966 11.7925 78.5650 -1 11.7925 78.5650 TC 25 11.8144 78.5073 1 8 239
1966305N09096 1966 103 NI BB NOT_NAMED 1966-11-04 00:00:00 TS 11.5984 78.1888 main 0 0 O________OP___ jtwc_io IO131966 11.6000 78.2000 -1 11.6000 78.2000 TC 25 11.5952 78.1664 1 8 242
1966305N09096 1966 103 NI AS NOT_NAMED 1966-11-04 03:00:00 TS 11.4233 77.8100 main 0 0 P________PO___ IO131966 11.4349 77.8150 -1 11.4349 77.8150 TC 25 11.4000 77.8000 1 8 248
1966305N09096 1966 103 NI AS NOT_NAMED 1966-11-04 06:00:00 TS 11.2863 77.3970 main 0 0 O________OP___ jtwc_io IO131966 11.3000 77.4000 -1 11.3000 77.4000 TC 25 11.2589 77.3910 1 9 253
1966305N09096 1966 103 NI AS NOT_NAMED 1966-11-04 09:00:00 TS 11.1724 76.9609 main 0 0 P________PP___ IO131966 11.1849 76.9650 -1 11.1849 76.9650 TC 25 11.1473 76.9526 1 9 257
1966305N09096 1966 103 NI AS NOT_NAMED 1966-11-04 12:00:00 TS 11.0873 76.4959 main 0 0 O________OP___ jtwc_io IO131966 11.1000 76.5000 -1 11.1000 76.5000 TC 25 11.0620 76.4878 1 9 261
1966305N09096 1966 103 NI AS NOT_NAMED 1966-11-04 15:00:00 TS 11.0283 76.0100 main 0 0 P________PO___ IO131966 11.0424 76.0150 -1 11.0424 76.0150 TC 25 11.0000 76.0000 1 10 264
1966305N09096 1966 103 NI AS NOT_NAMED 1966-11-04 18:00:00 TS 10.9831 75.4989 main 43 43 O________OP___ jtwc_io IO131966 11.0000 75.5000 -1 11.0000 75.5000 TC 25 10.9493 75.4967 1 10 265
1966305N09096 1966 103 NI AS NOT_NAMED 1966-11-04 21:00:00 TS 10.9349 74.9575 main 93 93 P________PP___ IO131966 10.9425 74.9500 -1 10.9425 74.9500 TC 25 10.9199 74.9726 1 11 266
1966305N09096 1966 103 NI AS NOT_NAMED 1966-11-05 00:00:00 TS 10.9018 74.4124 main 147 147 O________OP___ jtwc_io IO131966 10.9000 74.4000 -1 10.9000 74.4000 TC 25 10.9055 74.4373 1 10 268
1966305N09096 1966 103 NI AS NOT_NAMED 1966-11-05 03:00:00 TS 10.8949 73.9000 main 187 187 P________PO___ IO131966 10.8923 73.9000 -1 10.8923 73.9000 TC 25 10.9000 73.9000 1 10 270
1966305N09096 1966 103 NI AS NOT_NAMED 1966-11-05 06:00:00 TS 10.8976 73.3822 main 231 231 O________OP___ jtwc_io IO131966 10.9000 73.4000 -1 10.9000 73.4000 TC 25 10.8928 73.3467 1 11 270
1966305N09096 1966 103 NI AS NOT_NAMED 1966-11-05 09:00:00 TS 10.8976 72.8226 main 289 289 P________PP___ IO131966 10.9000 72.8350 -1 10.9000 72.8350 TC 25 10.8926 72.7976 1 11 270
1966305N09096 1966 103 NI AS NOT_NAMED 1966-11-05 12:00:00 TS 10.8987 72.2916 main 338 338 O________OP___ jtwc_io IO131966 10.9000 72.3000 -1 10.9000 72.3000 TC 25 10.8960 72.2748 1 10 270
1966305N09096 1966 103 NI AS NOT_NAMED 1966-11-05 15:00:00 TS 10.9000 71.8067 main 387 387 P________PO___ IO131966 10.9000 71.8100 -1 10.9000 71.8100 TC 25 10.9000 71.8000 1 8 270
1966305N09096 1966 103 NI AS NOT_NAMED 1966-11-05 18:00:00 TS 10.9012 71.4639 main 416 416 O________OP___ jtwc_io IO131966 10.9000 71.5000 -1 10.9000 71.5000 TC 25 10.9037 71.3916 1 4 270
1966305N09096 1966 103 NI AS NOT_NAMED 1966-11-05 21:00:00 TS 10.9023 71.3725 main 426 426 P________PP___ IO131966 10.8999 71.5425 -1 10.8999 71.5425 TC 25 10.9070 71.0326 1 2 270
1966305N09096 1966 103 NI AS NOT_NAMED 1966-11-06 00:00:00 TS 10.9023 71.3024 main 435 435 O________OP___ jtwc_io IO131966 10.9000 71.6000 -1 10.9000 71.6000 TC 25 10.9069 70.7073 1 3 270
1966305N09096 1966 103 NI AS NOT_NAMED 1966-11-06 03:00:00 TS 10.9049 71.0317 main 465 465 P________PO___ IO131966 10.9074 71.3475 -1 10.9074 71.3475 TC 25 10.9000 70.4000 1 7 269
1966305N09096 1966 103 NI AS NOT_NAMED 1966-11-06 06:00:00 TS 10.8927 70.6285 main 504 504 O________OP___ jtwc_io IO131966 10.9000 70.9000 -1 10.9000 70.9000 TC 25 10.8780 70.0856 1 9 266
1966305N09096 1966 103 NI AS NOT_NAMED 1966-11-06 09:00:00 TS 10.8501 70.1333 main 554 554 P________PP___ IO131966 10.8502 70.3074 -1 10.8502 70.3074 TC 25 10.8498 69.7849 1 10 265
1966305N09096 1966 103 NI AS NOT_NAMED 1966-11-06 12:00:00 TS 10.8072 69.6306 main 609 609 O________OP___ jtwc_io IO131966 10.8000 69.7000 -1 10.8000 69.7000 TC 25 10.8217 69.4918 1 9 266
1966305N09096 1966 103 NI AS NOT_NAMED 1966-11-06 15:00:00 TS 10.7949 69.2367 main 649 649 P________PO___ IO131966 10.7924 69.2551 -1 10.7924 69.2551 TC 25 10.8000 69.2000 1 7 269
1966305N09096 1966 103 NI AS NOT_NAMED 1966-11-06 18:00:00 TS 10.7895 68.8972 main 680 680 O________OP___ jtwc_io IO131966 10.8000 68.9000 -1 10.8000 68.9000 TC 25 10.7684 68.8918 1 6 268
1966305N09096 1966 103 NI AS NOT_NAMED 1966-11-06 21:00:00 TS 10.7774 68.5849 main 711 711 P________PP___ IO131966 10.7924 68.5850 -1 10.7924 68.5850 TC 25 10.7475 68.5848 1 6 269
1966305N09096 1966 103 NI AS NOT_NAMED 1966-11-07 00:00:00 TS 10.7843 68.2952 main 742 742 O________OP___ jtwc_io IO131966 10.8000 68.3000 -1 10.8000 68.3000 TC 25 10.7528 68.2855 1 6 274
1966305N09096 1966 103 NI AS NOT_NAMED 1966-11-07 03:00:00 TS 10.8183 67.9950 main 773 773 P________PO___ IO131966 10.8275 67.9925 -1 10.8275 67.9925 TC 25 10.8000 68.0000 1 6 281
1966305N09096 1966 103 NI AS NOT_NAMED 1966-11-07 06:00:00 TS 10.9009 67.7105 main 801 801 O________OP___ jtwc_io IO131966 10.9000 67.7000 -1 10.9000 67.7000 TC 25 10.9027 67.7317 1 6 292
1966305N09096 1966 103 NI AS NOT_NAMED 1966-11-07 09:00:00 TS 11.0341 67.4492 main 830 827 P________PP___ IO131966 11.0275 67.4350 -1 11.0275 67.4350 TC 25 11.0474 67.4776 1 6 302
1966305N09096 1966 103 NI AS NOT_NAMED 1966-11-07 12:00:00 TS 11.2061 67.2116 main 846 841 O________OP___ jtwc_io IO131966 11.2000 67.2000 -1 11.2000 67.2000 TC 25 11.2184 67.2347 1 6 309
1966305N09096 1966 103 NI AS NOT_NAMED 1966-11-07 15:00:00 TS 11.3950 67.0000 main 854 854 P________PO___ IO131966 11.3925 67.0000 -1 11.3925 67.0000 TC 25 11.4000 67.0000 1 6 313
1966305N09096 1966 103 NI AS NOT_NAMED 1966-11-07 18:00:00 TS 11.5920 66.7839 main 862 862 O________OP___ jtwc_io IO131966 11.6000 66.8000 -1 11.6000 66.8000 TC 25 11.5759 66.7516 1 6 311
1966305N09096 1966 103 NI AS NOT_NAMED 1966-11-07 21:00:00 TS 11.7958 66.5376 main 881 876 P________PP___ IO131966 11.8150 66.5500 -1 11.8150 66.5500 TC 30 11.7575 66.5126 1 6 309
1966305N09096 1966 103 NI AS NOT_NAMED 1966-11-08 00:00:00 TS 11.9784 66.2974 main 892 892 O________OP___ jtwc_io IO131966 12.0000 66.3000 -1 12.0000 66.3000 TC 35 11.9353 66.2922 1 5 305
1966305N09096 1966 103 NI AS NOT_NAMED 1966-11-08 03:00:00 TS 12.1050 66.0850 main 907 907 P________PO___ IO131966 12.1075 66.0774 -1 12.1075 66.0774 TC 35 12.1000 66.1000 2 4 302
1966305N09096 1966 103 NI AS NOT_NAMED 1966-11-08 06:00:00 TS 12.2131 65.9167 main 923 919 O________OP___ jtwc_io IO131966 12.2000 65.9000 -1 12.2000 65.9000 TC 35 12.2393 65.9501 2 4 312
1966305N09096 1966 103 NI AS NOT_NAMED 1966-11-08 09:00:00 TS 12.3549 65.7991 main 924 924 P________PP___ IO131966 12.3500 65.7850 -1 12.3500 65.7850 TC 35 12.3648 65.8273 2 4 324
1966305N09096 1966 103 NI AS NOT_NAMED 1966-11-08 12:00:00 TS 12.4943 65.7053 main 930 926 O________OP___ jtwc_io IO131966 12.5000 65.7000 -1 12.5000 65.7000 TC 35 12.4830 65.7158 2 3 322
1966305N09096 1966 103 NI AS NOT_NAMED 1966-11-08 15:00:00 TS 12.6000 65.6050 main 936 936 P________PO___ IO131966 12.6000 65.6075 -1 12.6000 65.6075 TC 35 12.6000 65.6000 3 3 316
1966305N09096 1966 103 NI AS NOT_NAMED 1966-11-08 18:00:00 TS 12.6988 65.5018 main 941 935 O________OP___ jtwc_io IO131966 12.7000 65.5000 -1 12.7000 65.5000 TC 35 12.6963 65.5054 3 3 316
1966305N09096 1966 103 NI AS NOT_NAMED 1966-11-08 21:00:00 TS 12.8273 65.3805 main 945 940 P________PP___ IO131966 12.8425 65.3725 -1 12.8425 65.3725 TC 35 12.7970 65.3967 3 4 314
1966305N09096 1966 103 NI AS NOT_NAMED 1966-11-09 00:00:00 TS 12.9747 65.2132 main 955 955 O________OP___ jtwc_io IO131966 13.0000 65.2000 -1 13.0000 65.2000 TC 35 12.9242 65.2396 3 5 308
1966305N09096 1966 103 NI AS NOT_NAMED 1966-11-09 03:00:00 TS 13.1132 65.0015 main 970 970 P________PO___ IO131966 13.1199 65.0023 -1 13.1199 65.0023 TC 35 13.1000 65.0000 3 6 304
1966305N09096 1966 103 NI AS NOT_NAMED 1966-11-09 06:00:00 TS 13.3193 64.6843 main 974 919 O________OP___ jtwc_io IO131966 13.3000 64.7000 -1 13.3000 64.7000 TC 35 13.3579 64.6528 3 9 305
1966305N09096 1966 103 NI AS NOT_NAMED 1966-11-09 09:00:00 TS 13.6392 64.2369 main 911 841 P________PP___ IO131966 13.6275 64.2451 -1 13.6275 64.2451 TC 35 13.6626 64.2203 3 12 305
1966305N09096 1966 103 NI AS NOT_NAMED 1966-11-09 12:00:00 TS 13.9953 63.7092 main 841 779 O________OP___ jtwc_io IO131966 14.0000 63.7000 -1 14.0000 63.7000 TC 35 13.9859 63.7277 3 12 303
1966305N09096 1966 103 NI AS NOT_NAMED 1966-11-09 15:00:00 TS 14.3099 63.1716 main 779 709 P________PO___ IO131966 14.3149 63.1574 -1 14.3149 63.1574 TC 35 14.3000 63.2000 3 12 300
1966305N09096 1966 103 NI AS NOT_NAMED 1966-11-09 18:00:00 TS 14.5964 62.6169 main 709 647 O________OP___ jtwc_io IO131966 14.6000 62.6000 -1 14.6000 62.6000 TC 35 14.5891 62.6506 3 12 297
1966305N09096 1966 103 NI AS NOT_NAMED 1966-11-09 21:00:00 TS 14.8685 62.0493 main 640 587 P________PP___ IO131966 14.8725 62.0350 -1 14.8725 62.0350 TC 50 14.8605 62.0780 3 12 295
1966305N09096 1966 103 NI AS NOT_NAMED 1966-11-10 00:00:00 TS 15.1005 61.5054 main 587 535 O________OP___ jtwc_io IO131966 15.1000 61.5000 -1 15.1000 61.5000 TC 65 15.1016 61.5163 3 11 292
1966305N09096 1966 103 NI AS NOT_NAMED 1966-11-10 03:00:00 TS 15.2816 61.0132 main 535 500 P________PO___ IO131966 15.2724 61.0199 -1 15.2724 61.0199 TC 65 15.3000 61.0000 4 9 290
1966305N09096 1966 103 NI AS NOT_NAMED 1966-11-10 06:00:00 TS 15.4141 60.5913 main 500 467 O________OP___ jtwc_io IO131966 15.4000 60.6000 -1 15.4000 60.6000 TC 65 15.4424 60.5740 4 8 287
1966305N09096 1966 103 NI AS NOT_NAMED 1966-11-10 09:00:00 TS 15.5196 60.2271 main 467 440 P________PP___ IO131966 15.5073 60.2424 -1 15.5073 60.2424 TC 65 15.5441 60.1967 4 7 286
1966305N09096 1966 103 NI AS NOT_NAMED 1966-11-10 12:00:00 TS 15.6079 59.8820 main 440 409 O________OP___ jtwc_io IO131966 15.6000 59.9000 -1 15.6000 59.9000 TC 65 15.6238 59.8460 4 7 284
1966305N09096 1966 103 NI AS NOT_NAMED 1966-11-10 15:00:00 TS 15.7000 59.5000 main 409 377 P________PO___ IO131966 15.7000 59.5000 -1 15.7000 59.5000 TC 65 15.7000 59.5000 4 7 285
1966305N09096 1966 103 NI AS NOT_NAMED 1966-11-10 18:00:00 TS 15.7981 59.1352 main 370 339 O________OP___ jtwc_io IO131966 15.8000 59.1000 -1 15.8000 59.1000 TC 65 15.7944 59.2056 4 7 286
1966305N09096 1966 103 NI AS NOT_NAMED 1966-11-10 21:00:00 TS 15.8965 58.8046 main 339 308 P________PP___ IO131966 15.8998 58.7574 -1 15.8998 58.7574 TC 65 15.8900 58.8990 4 7 287
1966305N09096 1966 103 NI AS NOT_NAMED 1966-11-11 00:00:00 TS 15.9969 58.4393 main 300 270 O________OP___ jtwc_io IO131966 16.0000 58.4000 -1 16.0000 58.4000 TC 65 15.9907 58.5179 4 8 285
1966305N09096 1966 103 NI AS NOT_NAMED 1966-11-11 03:00:00 TS 16.0946 58.0265 main 263 223 P________PO___ IO131966 16.0918 58.0397 -1 16.0918 58.0397 TC 50 16.1000 58.0000 4 10 282
1966305N09096 1966 103 NI AS NOT_NAMED 1966-11-11 06:00:00 TS 16.2078 57.4204 main 217 171 O________OP___ jtwc_io IO131966 16.2000 57.5000 -1 16.2000 57.5000 TC 35 16.2195 57.3011 4 14 280
1966305N09096 1966 103 NI AS NOT_NAMED 1966-11-11 09:00:00 TS 16.3433 56.5624 main 171 84 P________PP___ IO131966 16.3415 56.6455 -1 16.3415 56.6455 TC 30 16.3456 56.4516 4 18 279
1966305N09096 1966 103 NI AS NOT_NAMED 1966-11-11 12:00:00 TS 16.4869 55.5506 main 84 33 O________OP___ jtwc_io IO131966 16.5000 55.6000 -1 16.5000 55.6000 TC 25 16.4737 55.5012 4 20 277
1966305N09096 1966 103 NI AS NOT_NAMED 1966-11-11 15:00:00 NR 16.6000 54.5000 main 44 __________O___ IO131966 -1 TC 16.6000 54.5000 1 20 276

IBTrACS Databaseについて

本データベースは、米国NOAAが公開する1842年以降の世界の熱帯低気圧のベストトラックデータアーカイブInternational Best Track Archive for Climate Stewardship (IBTrACS)を、ウェブで閲覧しやすい形式に変換したものです。

最終更新日:2021-12-03